Statia Express — V7TT3 — position and weather

sailwx.info

Track history (hours):
 
Tides and Currents Weather Stations Pressure Air Temp Water Temp Dewpoint Dewpoint Depression Visibility Wind Speed Wind Dir Waves Ship Positions

Statia Express

Last reported at 2016-Dec-02 01:10 UTC. Time now 2016-Dec-02 22:14 UTC.
Position N 18°00' W 063°03'.

Length 28 m; draft 4.1 m.

Type: Tug. MMSI: 538003879.

Date/timePositionNaut miles runAvg speedWind from/ knotsBaromVisibWave heightAir tempDewpointWater temp
2016-Dec-02 01:10N 18°00' W 063°03'2 3.2
2016-Dec-02 00:32N 18°01' W 063°05'0 0.0
2016-Dec-01 12:24N 18°01' W 063°05'2 0.2
2016-Dec-01 03:27N 18°01' W 063°03'0 0.0
2016-Dec-01 00:10N 18°01' W 063°03'0 0.0
2016-Nov-30 22:30N 18°01' W 063°03'0 0.0
2016-Nov-30 16:09N 18°01' W 063°03'0 0.1
2016-Nov-30 14:11N 18°01' W 063°03'0 0.2
2016-Nov-30 13:31N 18°01' W 063°03'0 0.3
2016-Nov-30 12:27N 18°01' W 063°03'0 0.2
2016-Nov-30 11:06N 18°01' W 063°03'0 0.0
2016-Nov-30 08:15N 18°01' W 063°03'0 0.1
2016-Nov-30 03:33N 18°00' W 063°03'0 0.1
2016-Nov-29 23:16N 18°01' W 063°03'0 0.1
2016-Nov-29 22:33N 18°01' W 063°03'0 0.0
2016-Nov-29 09:06N 18°01' W 063°03'0 0.1
2016-Nov-29 08:32N 18°01' W 063°03'0 0.0
2016-Nov-29 03:18N 18°01' W 063°03'0 0.0
2016-Nov-28 23:32N 18°01' W 063°03'0 0.0
2016-Nov-28 22:25N 18°01' W 063°03'1 0.5
2016-Nov-28 21:10N 18°00' W 063°03'1 0.1
2016-Nov-28 13:26N 18°00' W 063°04'1 1.3
2016-Nov-28 12:33N 18°01' W 063°05'3 2.8
2016-Nov-28 11:29N 17°58' W 063°06'6 5.9
2016-Nov-28 10:26N 17°52' W 063°05'7 0.4
2016-Nov-27 16:33N 17°45' W 063°04'6 6.0
2016-Nov-27 15:30N 17°51' W 063°05'6 6.1
2016-Nov-27 14:32N 17°57' W 063°05'5 3.2
2016-Nov-27 13:04N 18°01' W 063°03'0 0.0
2016-Nov-27 10:07N 18°01' W 063°03'0 0.0
2016-Nov-27 09:31N 18°01' W 063°03'0 0.0
2016-Nov-27 08:31N 18°01' W 063°03'0 0.0
2016-Nov-27 07:33N 18°01' W 063°03'0 0.0
2016-Nov-27 06:33N 18°01' W 063°03'0 0.0
2016-Nov-27 05:33N 18°01' W 063°03'0 0.0
2016-Nov-27 04:31N 18°01' W 063°03'0 0.0
2016-Nov-27 03:28N 18°01' W 063°03'0 0.0
2016-Nov-27 02:32N 18°01' W 063°03'0 0.0
2016-Nov-26 20:31N 18°01' W 063°03'0 0.1
2016-Nov-26 16:32N 18°00' W 063°03'0 0.0
2016-Nov-26 04:14N 18°01' W 063°03'0 0.0
2016-Nov-25 22:14N 18°01' W 063°03'0 0.1
2016-Nov-25 17:08N 18°00' W 063°03'0 0.1
2016-Nov-25 14:27N 18°01' W 063°03'0 0.0
2016-Nov-25 09:33N 18°01' W 063°03'3 3.0
2016-Nov-25 08:33N 17°59' W 063°06'5 4.9
2016-Nov-25 07:31N 17°54' W 063°05'6 5.7
2016-Nov-25 06:32N 17°48' W 063°04'  
Track history (hours):
 
Tides and Currents Weather Stations Pressure Air Temp Water Temp Dewpoint Dewpoint Depression Visibility Wind Speed Wind Dir Waves Ship Positions

Statia Express

Last reported at 2016-Dec-02 01:10 UTC. Time now 2016-Dec-02 22:14 UTC.
Position N 18°00' W 063°03'.

Length 28 m; draft 4.1 m.

Type: Tug. MMSI: 538003879.

Date/timePositionNaut miles runAvg speedWind from/ knotsBaromVisibWave heightAir tempDewpointWater temp
2016-Dec-02 01:10N 18°00' W 063°03'2 3.2
2016-Dec-02 00:32N 18°01' W 063°05'0 0.0
2016-Dec-01 12:24N 18°01' W 063°05'2 0.2
2016-Dec-01 03:27N 18°01' W 063°03'0 0.0
2016-Dec-01 00:10N 18°01' W 063°03'0 0.0
2016-Nov-30 22:30N 18°01' W 063°03'0 0.0
2016-Nov-30 16:09N 18°01' W 063°03'0 0.1
2016-Nov-30 14:11N 18°01' W 063°03'0 0.2
2016-Nov-30 13:31N 18°01' W 063°03'0 0.3
2016-Nov-30 12:27N 18°01' W 063°03'0 0.2
2016-Nov-30 11:06N 18°01' W 063°03'0 0.0
2016-Nov-30 08:15N 18°01' W 063°03'0 0.1
2016-Nov-30 03:33N 18°00' W 063°03'0 0.1
2016-Nov-29 23:16N 18°01' W 063°03'0 0.1
2016-Nov-29 22:33N 18°01' W 063°03'0 0.0
2016-Nov-29 09:06N 18°01' W 063°03'0 0.1
2016-Nov-29 08:32N 18°01' W 063°03'0 0.0
2016-Nov-29 03:18N 18°01' W 063°03'0 0.0
2016-Nov-28 23:32N 18°01' W 063°03'0 0.0
2016-Nov-28 22:25N 18°01' W 063°03'1 0.5
2016-Nov-28 21:10N 18°00' W 063°03'1 0.1
2016-Nov-28 13:26N 18°00' W 063°04'1 1.3
2016-Nov-28 12:33N 18°01' W 063°05'3 2.8
2016-Nov-28 11:29N 17°58' W 063°06'6 5.9
2016-Nov-28 10:26N 17°52' W 063°05'7 0.4
2016-Nov-27 16:33N 17°45' W 063°04'6 6.0
2016-Nov-27 15:30N 17°51' W 063°05'6 6.1
2016-Nov-27 14:32N 17°57' W 063°05'5 3.2
2016-Nov-27 13:04N 18°01' W 063°03'0 0.0
2016-Nov-27 10:07N 18°01' W 063°03'0 0.0
2016-Nov-27 09:31N 18°01' W 063°03'0 0.0
2016-Nov-27 08:31N 18°01' W 063°03'0 0.0
2016-Nov-27 07:33N 18°01' W 063°03'0 0.0
2016-Nov-27 06:33N 18°01' W 063°03'0 0.0
2016-Nov-27 05:33N 18°01' W 063°03'0 0.0
2016-Nov-27 04:31N 18°01' W 063°03'0 0.0
2016-Nov-27 03:28N 18°01' W 063°03'0 0.0
2016-Nov-27 02:32N 18°01' W 063°03'0 0.0
2016-Nov-26 20:31N 18°01' W 063°03'0 0.1
2016-Nov-26 16:32N 18°00' W 063°03'0 0.0
2016-Nov-26 04:14N 18°01' W 063°03'0 0.0
2016-Nov-25 22:14N 18°01' W 063°03'0 0.1
2016-Nov-25 17:08N 18°00' W 063°03'0 0.1
2016-Nov-25 14:27N 18°01' W 063°03'0 0.0
2016-Nov-25 09:33N 18°01' W 063°03'3 3.0
2016-Nov-25 08:33N 17°59' W 063°06'5 4.9
2016-Nov-25 07:31N 17°54' W 063°05'6 5.7
2016-Nov-25 06:32N 17°48' W 063°04'  

Dump ship's entire track history